sensor_id;sensor_type;location;lat;lon;timestamp;temperature;humidity
13585;DHT22;6863;48.402;9.994;2023-07-22T00:01:23;13.20;99.90
13585;DHT22;6863;48.402;9.994;2023-07-22T00:03:49;13.20;99.90
13585;DHT22;6863;48.402;9.994;2023-07-22T00:06:14;13.10;99.90
13585;DHT22;6863;48.402;9.994;2023-07-22T00:08:40;13.00;99.90
13585;DHT22;6863;48.402;9.994;2023-07-22T00:11:06;12.90;99.90
13585;DHT22;6863;48.402;9.994;2023-07-22T00:13:32;12.80;99.90
13585;DHT22;6863;48.402;9.994;2023-07-22T00:15:58;12.70;99.90
13585;DHT22;6863;48.402;9.994;2023-07-22T00:18:25;12.70;99.90
13585;DHT22;6863;48.402;9.994;2023-07-22T00:20:53;12.60;99.90
13585;DHT22;6863;48.402;9.994;2023-07-22T00:23:19;12.50;99.90
13585;DHT22;6863;48.402;9.994;2023-07-22T00:25:45;12.60;99.90
13585;DHT22;6863;48.402;9.994;2023-07-22T00:28:11;12.60;99.90
13585;DHT22;6863;48.402;9.994;2023-07-22T00:30:37;12.60;99.90
13585;DHT22;6863;48.402;9.994;2023-07-22T00:33:02;12.60;99.90
13585;DHT22;6863;48.402;9.994;2023-07-22T00:35:28;12.60;99.90
13585;DHT22;6863;48.402;9.994;2023-07-22T00:37:53;12.50;99.90
13585;DHT22;6863;48.402;9.994;2023-07-22T00:40:19;12.50;99.90
13585;DHT22;6863;48.402;9.994;2023-07-22T00:42:45;12.40;99.90
13585;DHT22;6863;48.402;9.994;2023-07-22T00:45:10;12.40;99.90
13585;DHT22;6863;48.402;9.994;2023-07-22T00:47:36;12.40;99.90
13585;DHT22;6863;48.402;9.994;2023-07-22T00:50:03;12.40;99.90
13585;DHT22;6863;48.402;9.994;2023-07-22T00:52:29;12.50;99.90
13585;DHT22;6863;48.402;9.994;2023-07-22T00:54:55;12.50;99.90
13585;DHT22;6863;48.402;9.994;2023-07-22T00:57:21;12.50;99.90
13585;DHT22;6863;48.402;9.994;2023-07-22T00:59:47;12.50;99.90
13585;DHT22;6863;48.402;9.994;2023-07-22T01:02:13;12.40;99.90
13585;DHT22;6863;48.402;9.994;2023-07-22T01:04:39;12.40;99.90
13585;DHT22;6863;48.402;9.994;2023-07-22T01:07:06;12.30;99.90
13585;DHT22;6863;48.402;9.994;2023-07-22T01:09:36;12.30;99.90
13585;DHT22;6863;48.402;9.994;2023-07-22T01:12:02;12.30;99.90
13585;DHT22;6863;48.402;9.994;2023-07-22T01:14:28;12.20;99.90
13585;DHT22;6863;48.402;9.994;2023-07-22T01:16:54;12.10;99.90
13585;DHT22;6863;48.402;9.994;2023-07-22T01:19:20;12.10;99.90
13585;DHT22;6863;48.402;9.994;2023-07-22T01:21:47;12.00;99.90
13585;DHT22;6863;48.402;9.994;2023-07-22T01:24:13;12.00;99.90
13585;DHT22;6863;48.402;9.994;2023-07-22T01:26:39;12.00;99.90
13585;DHT22;6863;48.402;9.994;2023-07-22T01:29:05;12.00;99.90
13585;DHT22;6863;48.402;9.994;2023-07-22T01:31:33;12.00;99.90
13585;DHT22;6863;48.402;9.994;2023-07-22T01:33:59;12.00;99.90
13585;DHT22;6863;48.402;9.994;2023-07-22T01:36:25;12.00;99.90
13585;DHT22;6863;48.402;9.994;2023-07-22T01:38:50;12.10;99.90
13585;DHT22;6863;48.402;9.994;2023-07-22T01:41:16;12.10;99.90
13585;DHT22;6863;48.402;9.994;2023-07-22T01:43:41;12.00;99.90
13585;DHT22;6863;48.402;9.994;2023-07-22T01:46:07;12.00;99.90
13585;DHT22;6863;48.402;9.994;2023-07-22T01:48:33;11.90;99.90
13585;DHT22;6863;48.402;9.994;2023-07-22T01:50:58;11.90;99.90
13585;DHT22;6863;48.402;9.994;2023-07-22T01:53:24;11.90;99.90
13585;DHT22;6863;48.402;9.994;2023-07-22T01:55:49;11.90;99.90
13585;DHT22;6863;48.402;9.994;2023-07-22T01:58:15;12.00;99.90
13585;DHT22;6863;48.402;9.994;2023-07-22T02:00:44;12.00;99.90
13585;DHT22;6863;48.402;9.994;2023-07-22T02:03:14;12.00;99.90
13585;DHT22;6863;48.402;9.994;2023-07-22T02:05:39;12.00;99.90
13585;DHT22;6863;48.402;9.994;2023-07-22T02:08:05;12.10;99.90
13585;DHT22;6863;48.402;9.994;2023-07-22T02:10:31;12.20;99.90
13585;DHT22;6863;48.402;9.994;2023-07-22T02:12:56;12.20;99.90
13585;DHT22;6863;48.402;9.994;2023-07-22T02:15:23;12.30;99.90
13585;DHT22;6863;48.402;9.994;2023-07-22T02:17:50;12.30;99.90
13585;DHT22;6863;48.402;9.994;2023-07-22T02:20:15;12.20;99.90
13585;DHT22;6863;48.402;9.994;2023-07-22T02:22:42;12.20;99.90
13585;DHT22;6863;48.402;9.994;2023-07-22T02:25:08;12.10;99.90
13585;DHT22;6863;48.402;9.994;2023-07-22T02:27:35;12.10;99.90
13585;DHT22;6863;48.402;9.994;2023-07-22T02:30:01;12.10;99.90
13585;DHT22;6863;48.402;9.994;2023-07-22T02:32:29;12.20;99.90
13585;DHT22;6863;48.402;9.994;2023-07-22T02:34:55;12.30;99.90
13585;DHT22;6863;48.402;9.994;2023-07-22T02:37:20;12.30;99.90
13585;DHT22;6863;48.402;9.994;2023-07-22T02:39:46;12.30;99.90
13585;DHT22;6863;48.402;9.994;2023-07-22T02:42:11;12.20;99.90
13585;DHT22;6863;48.402;9.994;2023-07-22T02:44:37;12.10;99.90
13585;DHT22;6863;48.402;9.994;2023-07-22T02:47:03;12.00;99.90
13585;DHT22;6863;48.402;9.994;2023-07-22T02:49:28;11.90;99.90
13585;DHT22;6863;48.402;9.994;2023-07-22T02:51:54;11.90;99.90
13585;DHT22;6863;48.402;9.994;2023-07-22T02:54:20;11.80;99.90
13585;DHT22;6863;48.402;9.994;2023-07-22T02:56:45;11.80;99.90
13585;DHT22;6863;48.402;9.994;2023-07-22T02:59:11;11.70;99.90
13585;DHT22;6863;48.402;9.994;2023-07-22T03:01:36;11.60;99.90
13585;DHT22;6863;48.402;9.994;2023-07-22T03:04:02;11.60;99.90
13585;DHT22;6863;48.402;9.994;2023-07-22T03:06:29;11.60;99.90
13585;DHT22;6863;48.402;9.994;2023-07-22T03:08:56;11.50;99.90
13585;DHT22;6863;48.402;9.994;2023-07-22T03:11:23;11.50;99.90
13585;DHT22;6863;48.402;9.994;2023-07-22T03:13:50;11.50;99.90
13585;DHT22;6863;48.402;9.994;2023-07-22T03:16:16;11.50;99.90
13585;DHT22;6863;48.402;9.994;2023-07-22T03:18:42;11.50;99.90
13585;DHT22;6863;48.402;9.994;2023-07-22T03:21:08;11.50;99.90
13585;DHT22;6863;48.402;9.994;2023-07-22T03:23:34;11.40;99.90
13585;DHT22;6863;48.402;9.994;2023-07-22T03:26:00;11.30;99.90
13585;DHT22;6863;48.402;9.994;2023-07-22T03:28:25;11.20;99.90
13585;DHT22;6863;48.402;9.994;2023-07-22T03:30:51;11.20;99.90
13585;DHT22;6863;48.402;9.994;2023-07-22T03:33:18;11.10;99.90
13585;DHT22;6863;48.402;9.994;2023-07-22T03:35:43;11.10;99.90
13585;DHT22;6863;48.402;9.994;2023-07-22T03:38:09;11.10;99.90
13585;DHT22;6863;48.402;9.994;2023-07-22T03:40:35;11.10;99.90
13585;DHT22;6863;48.402;9.994;2023-07-22T03:43:01;11.10;99.90
13585;DHT22;6863;48.402;9.994;2023-07-22T03:45:26;11.10;99.90
13585;DHT22;6863;48.402;9.994;2023-07-22T03:48:01;11.10;99.90
13585;DHT22;6863;48.402;9.994;2023-07-22T03:50:27;11.10;99.90
13585;DHT22;6863;48.402;9.994;2023-07-22T03:52:53;11.00;99.90
13585;DHT22;6863;48.402;9.994;2023-07-22T03:55:18;11.00;99.90
13585;DHT22;6863;48.402;9.994;2023-07-22T03:57:47;11.10;99.90
13585;DHT22;6863;48.402;9.994;2023-07-22T04:00:13;11.10;99.90
13585;DHT22;6863;48.402;9.994;2023-07-22T04:02:38;11.10;99.90
13585;DHT22;6863;48.402;9.994;2023-07-22T04:05:04;11.10;99.90
13585;DHT22;6863;48.402;9.994;2023-07-22T04:07:30;11.10;99.90
13585;DHT22;6863;48.402;9.994;2023-07-22T04:09:56;11.10;99.90
13585;DHT22;6863;48.402;9.994;2023-07-22T04:12:23;11.20;99.90
13585;DHT22;6863;48.402;9.994;2023-07-22T04:14:48;11.20;99.90
13585;DHT22;6863;48.402;9.994;2023-07-22T04:17:14;11.30;99.90
13585;DHT22;6863;48.402;9.994;2023-07-22T04:19:41;11.40;99.90
13585;DHT22;6863;48.402;9.994;2023-07-22T04:22:07;11.50;99.90
13585;DHT22;6863;48.402;9.994;2023-07-22T04:24:33;11.50;99.90
13585;DHT22;6863;48.402;9.994;2023-07-22T04:26:59;11.60;99.90
13585;DHT22;6863;48.402;9.994;2023-07-22T04:29:24;11.60;99.90
13585;DHT22;6863;48.402;9.994;2023-07-22T04:31:50;11.60;99.90
13585;DHT22;6863;48.402;9.994;2023-07-22T04:34:16;11.60;99.90
13585;DHT22;6863;48.402;9.994;2023-07-22T04:36:41;11.70;99.90
13585;DHT22;6863;48.402;9.994;2023-07-22T04:39:07;11.70;99.90
13585;DHT22;6863;48.402;9.994;2023-07-22T04:41:35;11.80;99.90
13585;DHT22;6863;48.402;9.994;2023-07-22T04:44:00;11.80;99.90
13585;DHT22;6863;48.402;9.994;2023-07-22T04:46:26;12.00;99.90
13585;DHT22;6863;48.402;9.994;2023-07-22T04:48:55;12.00;99.90
13585;DHT22;6863;48.402;9.994;2023-07-22T04:51:22;12.10;99.90
13585;DHT22;6863;48.402;9.994;2023-07-22T04:53:47;12.20;99.90
13585;DHT22;6863;48.402;9.994;2023-07-22T04:56:13;12.30;99.90
13585;DHT22;6863;48.402;9.994;2023-07-22T04:58:38;12.30;99.90
13585;DHT22;6863;48.402;9.994;2023-07-22T05:01:04;12.40;99.90
13585;DHT22;6863;48.402;9.994;2023-07-22T05:03:30;12.50;99.90
13585;DHT22;6863;48.402;9.994;2023-07-22T05:05:55;12.60;99.90
13585;DHT22;6863;48.402;9.994;2023-07-22T05:08:23;12.70;99.90
13585;DHT22;6863;48.402;9.994;2023-07-22T05:10:48;12.80;99.90
13585;DHT22;6863;48.402;9.994;2023-07-22T05:13:14;12.90;99.90
13585;DHT22;6863;48.402;9.994;2023-07-22T05:15:40;13.00;99.90
13585;DHT22;6863;48.402;9.994;2023-07-22T05:18:05;13.00;99.90
13585;DHT22;6863;48.402;9.994;2023-07-22T05:20:31;13.10;99.90
13585;DHT22;6863;48.402;9.994;2023-07-22T05:22:57;13.20;99.90
13585;DHT22;6863;48.402;9.994;2023-07-22T05:25:22;13.30;99.90
13585;DHT22;6863;48.402;9.994;2023-07-22T05:27:49;13.40;99.90
13585;DHT22;6863;48.402;9.994;2023-07-22T05:30:14;13.50;99.90
13585;DHT22;6863;48.402;9.994;2023-07-22T05:32:40;13.60;99.90
13585;DHT22;6863;48.402;9.994;2023-07-22T05:35:06;13.60;99.90
13585;DHT22;6863;48.402;9.994;2023-07-22T05:37:31;13.70;99.90
13585;DHT22;6863;48.402;9.994;2023-07-22T05:39:58;13.80;99.90
13585;DHT22;6863;48.402;9.994;2023-07-22T05:42:23;13.80;99.90
13585;DHT22;6863;48.402;9.994;2023-07-22T05:44:49;13.90;99.90
13585;DHT22;6863;48.402;9.994;2023-07-22T05:47:15;13.90;99.90
13585;DHT22;6863;48.402;9.994;2023-07-22T05:49:40;14.10;99.90
13585;DHT22;6863;48.402;9.994;2023-07-22T05:52:06;14.20;99.90
13585;DHT22;6863;48.402;9.994;2023-07-22T05:54:32;14.30;99.90
13585;DHT22;6863;48.402;9.994;2023-07-22T05:56:57;14.40;99.90
13585;DHT22;6863;48.402;9.994;2023-07-22T05:59:23;14.60;99.90
13585;DHT22;6863;48.402;9.994;2023-07-22T06:01:48;14.80;99.90
13585;DHT22;6863;48.402;9.994;2023-07-22T06:04:14;14.90;99.90
13585;DHT22;6863;48.402;9.994;2023-07-22T06:06:39;15.10;99.90
13585;DHT22;6863;48.402;9.994;2023-07-22T06:09:05;15.30;99.90
13585;DHT22;6863;48.402;9.994;2023-07-22T06:11:30;15.50;99.90
13585;DHT22;6863;48.402;9.994;2023-07-22T06:13:56;15.70;99.90
13585;DHT22;6863;48.402;9.994;2023-07-22T06:16:22;15.80;99.90
13585;DHT22;6863;48.402;9.994;2023-07-22T06:18:47;16.00;99.90
13585;DHT22;6863;48.402;9.994;2023-07-22T06:21:13;16.10;99.90
13585;DHT22;6863;48.402;9.994;2023-07-22T06:23:42;16.20;99.90
13585;DHT22;6863;48.402;9.994;2023-07-22T06:26:07;16.30;99.90
13585;DHT22;6863;48.402;9.994;2023-07-22T06:28:33;16.40;99.90
13585;DHT22;6863;48.402;9.994;2023-07-22T06:30:58;16.50;99.90
13585;DHT22;6863;48.402;9.994;2023-07-22T06:33:24;16.60;99.50
13585;DHT22;6863;48.402;9.994;2023-07-22T06:35:49;16.70;99.70
13585;DHT22;6863;48.402;9.994;2023-07-22T06:38:15;16.80;99.70
13585;DHT22;6863;48.402;9.994;2023-07-22T06:40:40;16.70;99.60
13585;DHT22;6863;48.402;9.994;2023-07-22T06:43:06;16.90;99.40
13585;DHT22;6863;48.402;9.994;2023-07-22T06:45:32;16.90;99.10
13585;DHT22;6863;48.402;9.994;2023-07-22T06:47:58;17.10;99.10
13585;DHT22;6863;48.402;9.994;2023-07-22T06:50:24;17.30;98.80
13585;DHT22;6863;48.402;9.994;2023-07-22T06:52:50;17.50;98.30
13585;DHT22;6863;48.402;9.994;2023-07-22T06:55:18;17.60;97.50
13585;DHT22;6863;48.402;9.994;2023-07-22T06:57:43;17.80;97.40
13585;DHT22;6863;48.402;9.994;2023-07-22T07:00:12;18.00;97.20
13585;DHT22;6863;48.402;9.994;2023-07-22T07:02:41;18.20;96.80
13585;DHT22;6863;48.402;9.994;2023-07-22T07:05:07;18.00;97.10
13585;DHT22;6863;48.402;9.994;2023-07-22T07:07:33;18.10;97.00
13585;DHT22;6863;48.402;9.994;2023-07-22T07:09:58;18.30;96.70
13585;DHT22;6863;48.402;9.994;2023-07-22T07:12:24;18.40;96.60
13585;DHT22;6863;48.402;9.994;2023-07-22T07:14:53;18.50;96.60
13585;DHT22;6863;48.402;9.994;2023-07-22T07:17:18;18.80;96.60
13585;DHT22;6863;48.402;9.994;2023-07-22T07:19:44;19.00;95.30
13585;DHT22;6863;48.402;9.994;2023-07-22T07:22:10;19.20;95.20
13585;DHT22;6863;48.402;9.994;2023-07-22T07:24:36;19.40;94.50
13585;DHT22;6863;48.402;9.994;2023-07-22T07:27:02;19.50;94.30
13585;DHT22;6863;48.402;9.994;2023-07-22T07:29:27;19.80;93.60
13585;DHT22;6863;48.402;9.994;2023-07-22T07:31:56;20.00;93.50
13585;DHT22;6863;48.402;9.994;2023-07-22T07:34:22;20.10;93.30
13585;DHT22;6863;48.402;9.994;2023-07-22T07:36:48;20.10;93.40
13585;DHT22;6863;48.402;9.994;2023-07-22T07:39:14;20.00;92.40
13585;DHT22;6863;48.402;9.994;2023-07-22T07:41:39;19.90;92.30
13585;DHT22;6863;48.402;9.994;2023-07-22T07:44:05;19.80;92.50
13585;DHT22;6863;48.402;9.994;2023-07-22T07:46:31;20.00;92.90
13585;DHT22;6863;48.402;9.994;2023-07-22T07:48:58;20.40;92.10
13585;DHT22;6863;48.402;9.994;2023-07-22T07:51:25;20.40;90.20
13585;DHT22;6863;48.402;9.994;2023-07-22T07:53:55;20.50;90.70
13585;DHT22;6863;48.402;9.994;2023-07-22T07:56:21;20.50;90.40
13585;DHT22;6863;48.402;9.994;2023-07-22T07:58:49;20.60;91.10
13585;DHT22;6863;48.402;9.994;2023-07-22T08:01:15;20.60;90.80
13585;DHT22;6863;48.402;9.994;2023-07-22T08:03:42;21.00;88.80
13585;DHT22;6863;48.402;9.994;2023-07-22T08:06:11;21.40;85.60
13585;DHT22;6863;48.402;9.994;2023-07-22T08:08:37;21.20;85.50
13585;DHT22;6863;48.402;9.994;2023-07-22T08:11:06;21.10;87.20
13585;DHT22;6863;48.402;9.994;2023-07-22T08:13:32;21.20;83.90
13585;DHT22;6863;48.402;9.994;2023-07-22T08:16:09;21.60;83.90
13585;DHT22;6863;48.402;9.994;2023-07-22T08:18:35;21.90;81.00
13585;DHT22;6863;48.402;9.994;2023-07-22T08:21:03;22.40;79.80
13585;DHT22;6863;48.402;9.994;2023-07-22T08:23:29;22.60;80.00
13585;DHT22;6863;48.402;9.994;2023-07-22T08:25:54;22.70;80.00
13585;DHT22;6863;48.402;9.994;2023-07-22T08:28:20;22.60;79.40
13585;DHT22;6863;48.402;9.994;2023-07-22T08:30:48;22.70;77.00
13585;DHT22;6863;48.402;9.994;2023-07-22T08:33:14;22.80;73.20
13585;DHT22;6863;48.402;9.994;2023-07-22T08:35:40;23.00;75.00
13585;DHT22;6863;48.402;9.994;2023-07-22T08:38:08;23.20;68.50
13585;DHT22;6863;48.402;9.994;2023-07-22T08:40:39;22.90;65.20
13585;DHT22;6863;48.402;9.994;2023-07-22T08:43:08;23.00;63.80
13585;DHT22;6863;48.402;9.994;2023-07-22T08:45:35;22.80;65.00
13585;DHT22;6863;48.402;9.994;2023-07-22T08:48:04;23.10;65.90
13585;DHT22;6863;48.402;9.994;2023-07-22T08:50:37;23.50;62.90
13585;DHT22;6863;48.402;9.994;2023-07-22T08:53:07;23.70;62.40
13585;DHT22;6863;48.402;9.994;2023-07-22T08:55:34;24.20;61.50
13585;DHT22;6863;48.402;9.994;2023-07-22T08:58:00;23.70;62.00
13585;DHT22;6863;48.402;9.994;2023-07-22T09:02:52;24.20;62.20
13585;DHT22;6863;48.402;9.994;2023-07-22T09:05:18;24.40;59.60
13585;DHT22;6863;48.402;9.994;2023-07-22T09:07:44;24.30;59.30
13585;DHT22;6863;48.402;9.994;2023-07-22T09:10:12;24.20;58.80
13585;DHT22;6863;48.402;9.994;2023-07-22T09:12:39;24.40;59.30
13585;DHT22;6863;48.402;9.994;2023-07-22T09:15:12;24.50;58.30
13585;DHT22;6863;48.402;9.994;2023-07-22T09:17:38;24.30;57.80
13585;DHT22;6863;48.402;9.994;2023-07-22T09:20:05;24.60;57.60
13585;DHT22;6863;48.402;9.994;2023-07-22T09:22:32;24.60;57.20
13585;DHT22;6863;48.402;9.994;2023-07-22T09:25:13;24.70;58.60
13585;DHT22;6863;48.402;9.994;2023-07-22T09:27:40;25.60;56.10
13585;DHT22;6863;48.402;9.994;2023-07-22T09:32:46;26.30;53.60
13585;DHT22;6863;48.402;9.994;2023-07-22T09:35:12;26.90;52.90
13585;DHT22;6863;48.402;9.994;2023-07-22T09:37:38;27.30;51.80
13585;DHT22;6863;48.402;9.994;2023-07-22T09:40:22;29.00;48.60
13585;DHT22;6863;48.402;9.994;2023-07-22T09:42:49;28.40;48.50
13585;DHT22;6863;48.402;9.994;2023-07-22T09:45:16;27.90;47.70
13585;DHT22;6863;48.402;9.994;2023-07-22T09:47:47;27.00;49.20
13585;DHT22;6863;48.402;9.994;2023-07-22T09:50:18;27.10;49.90
13585;DHT22;6863;48.402;9.994;2023-07-22T09:52:57;26.40;50.20
13585;DHT22;6863;48.402;9.994;2023-07-22T09:55:25;28.10;48.80
13585;DHT22;6863;48.402;9.994;2023-07-22T09:57:53;29.50;45.10
13585;DHT22;6863;48.402;9.994;2023-07-22T10:03:01;26.50;47.40
13585;DHT22;6863;48.402;9.994;2023-07-22T10:05:28;25.40;48.80
13585;DHT22;6863;48.402;9.994;2023-07-22T10:07:57;25.00;50.40
13585;DHT22;6863;48.402;9.994;2023-07-22T10:10:32;25.40;50.20
13585;DHT22;6863;48.402;9.994;2023-07-22T10:12:58;26.20;49.80
13585;DHT22;6863;48.402;9.994;2023-07-22T10:15:29;25.70;49.60
13585;DHT22;6863;48.402;9.994;2023-07-22T10:17:56;25.30;50.90
13585;DHT22;6863;48.402;9.994;2023-07-22T10:20:23;25.10;51.50
13585;DHT22;6863;48.402;9.994;2023-07-22T10:22:49;25.00;52.10
13585;DHT22;6863;48.402;9.994;2023-07-22T10:25:18;24.80;51.80
13585;DHT22;6863;48.402;9.994;2023-07-22T10:27:44;24.70;50.80
13585;DHT22;6863;48.402;9.994;2023-07-22T10:30:12;24.80;51.10
13585;DHT22;6863;48.402;9.994;2023-07-22T10:32:47;26.00;50.00
13585;DHT22;6863;48.402;9.994;2023-07-22T10:37:55;28.70;47.00
13585;DHT22;6863;48.402;9.994;2023-07-22T10:43:06;29.20;43.40
13585;DHT22;6863;48.402;9.994;2023-07-22T10:45:34;27.60;46.00
13585;DHT22;6863;48.402;9.994;2023-07-22T10:48:12;27.00;46.80
13585;DHT22;6863;48.402;9.994;2023-07-22T10:50:51;26.50;47.90
13585;DHT22;6863;48.402;9.994;2023-07-22T10:56:05;25.90;49.30
13585;DHT22;6863;48.402;9.994;2023-07-22T11:11:55;31.20;40.60
13585;DHT22;6863;48.402;9.994;2023-07-22T11:14:27;29.90;42.00
13585;DHT22;6863;48.402;9.994;2023-07-22T11:16:53;31.00;41.90
13585;DHT22;6863;48.402;9.994;2023-07-22T11:19:22;32.50;39.30
13585;DHT22;6863;48.402;9.994;2023-07-22T11:21:49;33.50;36.40
13585;DHT22;6863;48.402;9.994;2023-07-22T11:24:16;33.80;34.90
13585;DHT22;6863;48.402;9.994;2023-07-22T11:26:42;34.20;34.30
13585;DHT22;6863;48.402;9.994;2023-07-22T11:29:09;34.80;33.20
13585;DHT22;6863;48.402;9.994;2023-07-22T11:31:46;37.00;31.40
13585;DHT22;6863;48.402;9.994;2023-07-22T11:34:13;38.20;28.70
13585;DHT22;6863;48.402;9.994;2023-07-22T11:36:39;37.60;28.20
13585;DHT22;6863;48.402;9.994;2023-07-22T11:42:00;34.90;30.70
13585;DHT22;6863;48.402;9.994;2023-07-22T11:44:27;36.20;29.60
13585;DHT22;6863;48.402;9.994;2023-07-22T11:47:01;36.90;28.60
13585;DHT22;6863;48.402;9.994;2023-07-22T11:49:34;35.40;29.60
13585;DHT22;6863;48.402;9.994;2023-07-22T11:52:04;34.60;30.40
13585;DHT22;6863;48.402;9.994;2023-07-22T11:54:32;35.30;29.90
13585;DHT22;6863;48.402;9.994;2023-07-22T11:59:37;37.00;28.00
13585;DHT22;6863;48.402;9.994;2023-07-22T12:02:03;36.50;28.30
13585;DHT22;6863;48.402;9.994;2023-07-22T12:04:34;36.10;29.20
13585;DHT22;6863;48.402;9.994;2023-07-22T12:07:01;37.80;27.20
13585;DHT22;6863;48.402;9.994;2023-07-22T12:09:26;37.60;27.30
13585;DHT22;6863;48.402;9.994;2023-07-22T12:11:57;37.60;27.00
13585;DHT22;6863;48.402;9.994;2023-07-22T12:14:24;38.40;27.00
13585;DHT22;6863;48.402;9.994;2023-07-22T12:16:55;36.30;27.70
13585;DHT22;6863;48.402;9.994;2023-07-22T12:19:22;36.00;28.80
13585;DHT22;6863;48.402;9.994;2023-07-22T12:21:47;37.50;27.60
13585;DHT22;6863;48.402;9.994;2023-07-22T12:24:14;39.00;26.50
13585;DHT22;6863;48.402;9.994;2023-07-22T12:26:40;39.70;25.00
13585;DHT22;6863;48.402;9.994;2023-07-22T12:29:07;38.80;25.50
13585;DHT22;6863;48.402;9.994;2023-07-22T12:31:33;36.80;27.00
13585;DHT22;6863;48.402;9.994;2023-07-22T12:33:59;34.20;29.00
13585;DHT22;6863;48.402;9.994;2023-07-22T12:36:24;32.30;31.00
13585;DHT22;6863;48.402;9.994;2023-07-22T12:38:51;31.10;33.20
13585;DHT22;6863;48.402;9.994;2023-07-22T12:41:16;29.70;35.30
13585;DHT22;6863;48.402;9.994;2023-07-22T12:43:42;28.20;38.30
13585;DHT22;6863;48.402;9.994;2023-07-22T12:46:07;27.30;40.10
13585;DHT22;6863;48.402;9.994;2023-07-22T12:48:33;26.70;41.10
13585;DHT22;6863;48.402;9.994;2023-07-22T12:50:58;25.80;43.50
13585;DHT22;6863;48.402;9.994;2023-07-22T12:53:24;25.40;44.60
13585;DHT22;6863;48.402;9.994;2023-07-22T12:55:50;25.50;45.20
13585;DHT22;6863;48.402;9.994;2023-07-22T12:58:16;27.90;42.80
13585;DHT22;6863;48.402;9.994;2023-07-22T13:00:41;29.90;38.80
13585;DHT22;6863;48.402;9.994;2023-07-22T13:03:07;32.60;35.60
13585;DHT22;6863;48.402;9.994;2023-07-22T13:05:32;33.60;33.00
13585;DHT22;6863;48.402;9.994;2023-07-22T13:07:58;34.00;32.10
13585;DHT22;6863;48.402;9.994;2023-07-22T13:10:29;32.60;33.50
13585;DHT22;6863;48.402;9.994;2023-07-22T13:12:56;30.40;36.50
13585;DHT22;6863;48.402;9.994;2023-07-22T13:15:21;29.00;38.80
13585;DHT22;6863;48.402;9.994;2023-07-22T13:17:47;28.40;40.20
13585;DHT22;6863;48.402;9.994;2023-07-22T13:20:12;28.00;41.30
13585;DHT22;6863;48.402;9.994;2023-07-22T13:22:38;27.60;42.00
13585;DHT22;6863;48.402;9.994;2023-07-22T13:25:05;27.60;42.30
13585;DHT22;6863;48.402;9.994;2023-07-22T13:27:30;27.10;43.40
13585;DHT22;6863;48.402;9.994;2023-07-22T13:29:56;27.60;43.20
13585;DHT22;6863;48.402;9.994;2023-07-22T13:32:23;29.20;40.90
13585;DHT22;6863;48.402;9.994;2023-07-22T13:34:48;29.80;39.70
13585;DHT22;6863;48.402;9.994;2023-07-22T13:37:14;31.50;37.60
13585;DHT22;6863;48.402;9.994;2023-07-22T13:39:42;33.60;35.10
13585;DHT22;6863;48.402;9.994;2023-07-22T13:42:08;36.40;30.90
13585;DHT22;6863;48.402;9.994;2023-07-22T13:44:34;37.30;29.70
13585;DHT22;6863;48.402;9.994;2023-07-22T13:47:00;36.40;30.00
13585;DHT22;6863;48.402;9.994;2023-07-22T13:49:25;36.00;29.00
13585;DHT22;6863;48.402;9.994;2023-07-22T13:51:51;36.40;29.20
13585;DHT22;6863;48.402;9.994;2023-07-22T13:54:16;36.30;28.80
13585;DHT22;6863;48.402;9.994;2023-07-22T13:56:42;35.40;29.80
13585;DHT22;6863;48.402;9.994;2023-07-22T13:59:09;34.50;30.90
13585;DHT22;6863;48.402;9.994;2023-07-22T14:01:34;34.40;31.80
13585;DHT22;6863;48.402;9.994;2023-07-22T14:04:00;34.80;30.60
13585;DHT22;6863;48.402;9.994;2023-07-22T14:06:25;32.70;33.00
13585;DHT22;6863;48.402;9.994;2023-07-22T14:08:51;32.00;34.50
13585;DHT22;6863;48.402;9.994;2023-07-22T14:11:16;33.30;33.50
13585;DHT22;6863;48.402;9.994;2023-07-22T14:13:43;33.20;32.70
13585;DHT22;6863;48.402;9.994;2023-07-22T14:16:08;33.20;32.50
13585;DHT22;6863;48.402;9.994;2023-07-22T14:18:34;32.40;32.90
13585;DHT22;6863;48.402;9.994;2023-07-22T14:20:59;30.90;34.90
13585;DHT22;6863;48.402;9.994;2023-07-22T14:23:25;29.30;38.10
13585;DHT22;6863;48.402;9.994;2023-07-22T14:25:51;28.00;40.00
13585;DHT22;6863;48.402;9.994;2023-07-22T14:28:16;27.50;41.40
13585;DHT22;6863;48.402;9.994;2023-07-22T14:30:42;28.00;41.70
13585;DHT22;6863;48.402;9.994;2023-07-22T14:33:07;29.10;40.40
13585;DHT22;6863;48.402;9.994;2023-07-22T14:35:33;30.00;38.60
13585;DHT22;6863;48.402;9.994;2023-07-22T14:38:00;29.60;38.70
13585;DHT22;6863;48.402;9.994;2023-07-22T14:40:26;29.20;38.80
13585;DHT22;6863;48.402;9.994;2023-07-22T14:42:51;29.10;38.70
13585;DHT22;6863;48.402;9.994;2023-07-22T14:45:17;29.40;39.00
13585;DHT22;6863;48.402;9.994;2023-07-22T14:47:42;29.50;37.50
13585;DHT22;6863;48.402;9.994;2023-07-22T14:50:09;29.10;37.80
13585;DHT22;6863;48.402;9.994;2023-07-22T14:52:34;28.80;38.30
13585;DHT22;6863;48.402;9.994;2023-07-22T14:55:00;29.20;39.10
13585;DHT22;6863;48.402;9.994;2023-07-22T14:57:25;29.00;38.20
13585;DHT22;6863;48.402;9.994;2023-07-22T14:59:56;28.10;39.50
13585;DHT22;6863;48.402;9.994;2023-07-22T15:02:22;27.70;39.70
13585;DHT22;6863;48.402;9.994;2023-07-22T15:04:48;27.30;40.10
13585;DHT22;6863;48.402;9.994;2023-07-22T15:07:14;27.10;40.40
13585;DHT22;6863;48.402;9.994;2023-07-22T15:09:40;27.20;40.90
13585;DHT22;6863;48.402;9.994;2023-07-22T15:12:05;27.60;40.70
13585;DHT22;6863;48.402;9.994;2023-07-22T15:14:32;27.50;39.70
13585;DHT22;6863;48.402;9.994;2023-07-22T15:16:58;26.70;40.50
13585;DHT22;6863;48.402;9.994;2023-07-22T15:19:24;26.20;41.90
13585;DHT22;6863;48.402;9.994;2023-07-22T15:21:50;26.20;42.30
13585;DHT22;6863;48.402;9.994;2023-07-22T15:24:15;26.50;42.10
13585;DHT22;6863;48.402;9.994;2023-07-22T15:26:41;26.40;41.70
13585;DHT22;6863;48.402;9.994;2023-07-22T15:29:07;26.20;41.10
13585;DHT22;6863;48.402;9.994;2023-07-22T15:31:33;26.30;41.50
13585;DHT22;6863;48.402;9.994;2023-07-22T15:33:58;26.50;41.00
13585;DHT22;6863;48.402;9.994;2023-07-22T15:36:24;26.70;40.90
13585;DHT22;6863;48.402;9.994;2023-07-22T15:38:49;26.90;40.30
13585;DHT22;6863;48.402;9.994;2023-07-22T15:41:15;26.90;40.20
13585;DHT22;6863;48.402;9.994;2023-07-22T15:43:41;27.40;40.20
13585;DHT22;6863;48.402;9.994;2023-07-22T15:46:06;27.60;40.10
13585;DHT22;6863;48.402;9.994;2023-07-22T15:48:32;27.50;39.30
13585;DHT22;6863;48.402;9.994;2023-07-22T15:50:58;27.20;38.80
13585;DHT22;6863;48.402;9.994;2023-07-22T15:53:23;26.90;39.30
13585;DHT22;6863;48.402;9.994;2023-07-22T15:55:49;27.00;40.00
13585;DHT22;6863;48.402;9.994;2023-07-22T15:58:16;26.70;37.00
13585;DHT22;6863;48.402;9.994;2023-07-22T16:00:42;26.40;36.50
13585;DHT22;6863;48.402;9.994;2023-07-22T16:03:08;26.10;36.80
13585;DHT22;6863;48.402;9.994;2023-07-22T16:05:35;26.20;37.10
13585;DHT22;6863;48.402;9.994;2023-07-22T16:08:00;26.30;36.80
13585;DHT22;6863;48.402;9.994;2023-07-22T16:10:26;26.40;37.00
13585;DHT22;6863;48.402;9.994;2023-07-22T16:12:52;26.50;36.90
13585;DHT22;6863;48.402;9.994;2023-07-22T16:15:17;26.70;37.10